aviador You're here:

SUMU Decoded Metar

MONTEVIDEO in URUGUAY
Report Time2018-06-21 21:00:00
UTC Time2018-06-21 21:49:34
Flight Rules vfr VFR
Wind240° at 10 kt
W.Decomp.*RWY 24: 9.9 kt HW 1.6 kt RCW
RWY 19: 5.2 kt HW 8.6 kt RCW
W.Rank240° ranks 30
Current wind is below 240° avg. (10.2)
Visibility9999 m
Phenomena:N/A
Clouds:N/A
Expected CloudBase > 3,200 ft AGL from Temp-Dew spread
CeilingNone
Temp12°C (ISA -3)
Dew Point04°C (58% RH)
AAT7.1°C
QNH1016 hPa
Density Alt-217 ft
Elevation105 ft
Report Wrong Elevation
Raw Report
METAR SUMU 212100Z 24010KT CAVOK 12/04 Q1016 TEMPO 240 15G25KT=

Extra information for SUMU:More info

Metar Taf Metar & Taf Last 4 Metars F.Rules Stats Wind Profile Meteogram Temp Stats Airport Information Weather charts Add Link Nearby VenuesMetar ALERT Operation Metar Decoded Social comments